createdAt,value
2023-03-11T00:56:58.925Z,1744.00
2023-03-11T00:57:59.782Z,1750.00
2023-03-11T00:58:59.035Z,1753.00
2023-03-11T00:59:59.077Z,1752.00
2023-03-11T01:00:59.194Z,1752.00
2023-03-11T01:01:59.162Z,1747.00
2023-03-11T01:02:59.218Z,1749.00
2023-03-11T01:03:59.326Z,1753.00
2023-03-11T01:04:59.381Z,1746.00
2023-03-11T01:06:00.284Z,1748.00
2023-03-11T01:06:59.460Z,1754.00
2023-03-11T01:07:59.496Z,1751.00
2023-03-11T01:09:59.599Z,1745.00
2023-03-11T01:10:59.636Z,1734.00
2023-03-11T01:11:59.697Z,1741.00
2023-03-11T01:12:59.726Z,1746.00
2023-03-11T01:13:59.767Z,1745.00
2023-03-11T01:14:59.856Z,1749.00
2023-03-11T01:15:59.956Z,1748.00
2023-03-11T01:16:59.922Z,1746.00
2023-03-11T01:17:59.965Z,1745.00
2023-03-11T01:19:00.003Z,1745.00
2023-03-11T01:21:00.098Z,1743.00
2023-03-11T01:22:00.153Z,1741.00
2023-03-11T01:23:00.209Z,1734.00
2023-03-11T01:24:00.247Z,1735.00
2023-03-11T01:25:00.306Z,1735.00
2023-03-11T01:26:00.340Z,1730.00
2023-03-11T04:08:08.923Z,1622.00
2023-03-11T04:09:08.992Z,1621.00
2023-03-11T04:10:09.052Z,1621.00
2023-03-11T04:11:09.095Z,1624.00
2023-03-11T04:12:09.143Z,1621.00
2023-03-11T04:13:09.203Z,1624.00
2023-03-11T04:14:09.252Z,1620.00
2023-03-11T04:15:09.303Z,1621.00
2023-03-11T04:16:09.349Z,1626.00
2023-03-11T04:17:09.448Z,1618.00
2023-03-11T04:18:09.490Z,1617.00
2023-03-11T04:19:09.842Z,1613.00
2023-03-11T04:20:09.847Z,1611.00
2023-03-11T04:21:09.615Z,1614.00
2023-03-11T04:22:09.748Z,1610.00
2023-03-11T04:23:09.784Z,1607.00
2023-03-11T04:24:09.775Z,1610.00
2023-03-11T04:25:09.834Z,1609.00
2023-03-11T04:26:09.880Z,1611.00
2023-03-11T04:27:09.930Z,1611.00
2023-03-11T04:28:09.983Z,1606.00
2023-03-11T04:29:10.065Z,1604.00
2023-03-11T04:30:10.119Z,1605.00
2023-03-11T04:31:10.218Z,1605.00
2023-03-11T04:32:10.204Z,1598.00
2023-03-11T04:33:10.261Z,1602.00
2023-03-11T04:34:10.360Z,1606.00
2023-03-11T04:35:10.399Z,1611.00
2023-03-11T04:36:10.438Z,1608.00
2023-03-11T04:37:11.336Z,1606.00
2023-03-11T04:38:10.538Z,1600.00
2023-03-11T04:39:10.595Z,1600.00
2023-03-11T04:40:10.653Z,1600.00
2023-03-11T04:41:10.696Z,1596.00
2023-03-11T04:42:10.758Z,1600.00
2023-03-11T04:43:10.809Z,1603.00
2023-03-11T04:44:10.855Z,1602.00
2023-03-11T04:45:10.933Z,1599.00
2023-03-11T04:46:11.009Z,1595.00
2023-03-11T04:47:11.041Z,1591.00
2023-03-11T04:48:11.097Z,1591.00
2023-03-11T04:49:11.156Z,1590.00
2023-03-11T04:50:11.230Z,1592.00
2023-03-11T04:51:11.280Z,1592.00
2023-03-11T04:52:11.340Z,1589.00
2023-03-11T04:53:11.403Z,1587.00
2023-03-11T04:54:11.454Z,1585.00
2023-03-11T04:55:11.522Z,1588.00
2023-03-11T04:56:11.581Z,1583.00
2023-03-11T04:57:11.656Z,1584.00
2023-03-11T04:58:11.703Z,1588.00
2023-03-11T04:59:11.764Z,1591.00
2023-03-11T05:00:11.817Z,1590.00
2023-03-11T05:01:11.903Z,1585.00
2023-03-11T05:02:13.079Z,1587.00
2023-03-11T05:03:12.040Z,1588.00
2023-03-11T05:04:12.174Z,1587.00
2023-03-11T05:05:12.346Z,1585.00
2023-03-11T05:06:12.839Z,1590.00
2023-03-11T05:07:12.226Z,1585.00
2023-03-11T05:08:12.287Z,1581.00
2023-03-11T05:09:13.334Z,1578.00
2023-03-11T05:10:12.482Z,1577.00
2023-03-11T05:11:12.466Z,1575.00
2023-03-11T05:12:12.545Z,1575.00
2023-03-11T05:13:12.605Z,1578.00
2023-03-11T05:14:12.643Z,1584.00
2023-03-11T05:15:12.691Z,1578.00
2023-03-11T05:16:12.799Z,1576.00
2023-03-11T05:17:12.813Z,1567.00
2023-03-11T05:18:12.884Z,1566.00
2023-03-11T05:19:12.926Z,1565.00
2023-03-11T05:20:15.101Z,1565.00
2023-03-11T05:21:13.356Z,1563.00
2023-03-11T05:22:13.293Z,1564.00
2023-03-11T05:23:13.354Z,1566.00
2023-03-11T05:24:13.412Z,1571.00
2023-03-11T05:25:13.471Z,1574.00
2023-03-11T05:26:13.595Z,1569.00
2023-03-11T05:27:13.593Z,1566.00
2023-03-11T05:28:13.649Z,1557.00
2023-03-11T05:29:13.709Z,1558.00
2023-03-11T05:30:13.776Z,1557.00
2023-03-11T05:31:13.990Z,1559.00
2023-03-11T05:32:13.939Z,1556.00
2023-03-11T05:33:13.973Z,1563.00
2023-03-11T05:34:14.005Z,1561.00
2023-03-11T05:35:14.093Z,1562.00
2023-03-11T05:36:14.150Z,1565.00
2023-03-11T05:37:14.211Z,1563.00
2023-03-11T05:38:14.854Z,1563.00
2023-03-11T05:39:14.314Z,1561.00
2023-03-11T05:40:14.454Z,1559.00
2023-03-11T05:41:14.436Z,1558.00
2023-03-11T05:42:14.505Z,1561.00
2023-03-11T05:43:14.570Z,1556.00
2023-03-11T05:44:14.628Z,1555.00
2023-03-11T06:56:18.943Z,1499.00
2023-03-11T06:57:18.988Z,1495.00
2023-03-11T06:58:19.052Z,1490.00
2023-03-11T06:59:19.105Z,1492.00
2023-03-11T07:00:19.157Z,1496.00
2023-03-11T07:01:19.247Z,1488.00
2023-03-11T07:02:19.269Z,1492.00
2023-03-11T07:03:19.322Z,1502.00
2023-03-11T07:04:19.445Z,1503.00
2023-03-11T07:05:19.429Z,1492.00
2023-03-11T07:06:19.496Z,1503.00
2023-03-11T07:07:19.549Z,1499.00
2023-03-11T07:08:19.615Z,1501.00
2023-03-11T07:09:19.663Z,1501.00
2023-03-11T07:10:20.216Z,1501.00
2023-03-11T07:11:20.175Z,1503.00
2023-03-11T07:12:20.401Z,1504.00
2023-03-11T07:13:19.897Z,1502.00
2023-03-11T07:14:20.508Z,1496.00
2023-03-11T07:15:20.881Z,1488.00
2023-03-11T07:16:20.063Z,1488.00
2023-03-11T07:17:20.129Z,1486.00
2023-03-11T07:18:20.172Z,1487.00
2023-03-11T07:19:20.503Z,1492.00
2023-03-11T07:20:20.336Z,1494.00
2023-03-11T07:21:20.337Z,1493.00
2023-03-11T07:22:20.392Z,1495.00
2023-03-11T07:23:20.429Z,1494.00
2023-03-11T07:24:20.730Z,1495.00
2023-03-11T07:25:20.529Z,1498.00
2023-03-11T07:26:20.580Z,1492.00
2023-03-11T07:27:20.896Z,1493.00
2023-03-11T07:28:20.683Z,1488.00
2023-03-11T07:29:21.134Z,1488.00
2023-03-11T07:30:20.798Z,1485.00
2023-03-11T07:31:21.249Z,1484.00
2023-03-11T07:32:20.952Z,1484.00
2023-03-11T07:33:20.930Z,1478.00
2023-03-11T07:34:20.987Z,1478.00
2023-03-11T07:35:21.037Z,1484.00
2023-03-11T07:36:21.114Z,1488.00
2023-03-11T07:37:21.216Z,1481.00
2023-03-11T07:38:21.221Z,1480.00
2023-03-11T07:39:21.278Z,1480.00
2023-03-11T07:40:21.882Z,1482.00
2023-03-11T07:41:21.894Z,1476.00
2023-03-11T07:42:21.929Z,1479.00
2023-03-11T07:43:21.482Z,1481.00
2023-03-11T07:44:21.547Z,1477.00
2023-03-11T07:45:21.591Z,1478.00
2023-03-11T07:46:22.026Z,1477.00
2023-03-11T07:47:21.698Z,1477.00
2023-03-11T07:48:21.748Z,1475.00
2023-03-11T07:49:21.819Z,1472.00
2023-03-11T07:50:21.868Z,1469.00
2023-03-11T07:51:21.960Z,1466.00
2023-03-11T07:52:21.964Z,1461.00
2023-03-11T07:53:22.032Z,1465.00
2023-03-11T07:54:22.088Z,1464.00
2023-03-11T07:55:22.890Z,1463.00
2023-03-11T07:56:22.177Z,1459.00
2023-03-11T07:57:22.235Z,1465.00
2023-03-11T07:58:22.280Z,1461.00
2023-03-11T07:59:22.345Z,1466.00
2023-03-11T08:00:22.387Z,1468.00
2023-03-11T08:01:22.475Z,1467.00
2023-03-11T08:02:22.549Z,1471.00
2023-03-11T08:03:22.584Z,1470.00
2023-03-11T08:04:22.611Z,1467.00
2023-03-11T08:05:22.664Z,1464.00
2023-03-11T08:06:22.709Z,1464.00
2023-03-11T08:07:22.774Z,1466.00
2023-03-11T08:08:22.820Z,1465.00
2023-03-11T08:09:22.908Z,1466.00
2023-03-11T08:10:22.933Z,1468.00
2023-03-11T08:12:23.031Z,1469.00
2023-03-11T08:13:23.096Z,1468.00
2023-03-11T08:14:23.160Z,1467.00
2023-03-11T08:15:23.210Z,1463.00
2023-03-11T08:16:23.254Z,1461.00
2023-03-11T10:19:28.925Z,1392.00
2023-03-11T10:44:28.940Z,1382.00
2023-03-11T10:45:28.976Z,1379.00
2023-03-11T10:46:29.004Z,1378.00
2023-03-11T10:47:29.035Z,1379.00
2023-03-11T10:48:29.069Z,1383.00
2023-03-11T10:49:29.108Z,1381.00
2023-03-11T10:50:29.139Z,1378.00
2023-03-11T10:51:29.234Z,1388.00
2023-03-11T10:52:29.212Z,1391.00
2023-03-11T10:53:29.229Z,1385.00
2023-03-11T10:54:29.287Z,1384.00
2023-03-11T10:55:29.324Z,1381.00
2023-03-11T10:56:29.434Z,1379.00
2023-03-11T10:57:29.421Z,1373.00
2023-03-11T10:58:29.406Z,1373.00
2023-03-11T10:59:29.509Z,1376.00
2023-03-11T11:00:29.540Z,1378.00
2023-03-11T11:01:29.632Z,1379.00
2023-03-11T11:02:29.598Z,1372.00
2023-03-11T11:03:29.638Z,1368.00
2023-03-11T11:04:29.823Z,1371.00
2023-03-11T11:05:29.761Z,1376.00
2023-03-11T11:06:29.786Z,1375.00
2023-03-11T11:07:29.826Z,1377.00
2023-03-11T11:08:29.948Z,1373.00
2023-03-11T11:09:30.140Z,1374.00
2023-03-11T11:10:30.069Z,1376.00
2023-03-11T11:11:30.110Z,1373.00
2023-03-11T11:12:30.131Z,1370.00
2023-03-11T11:13:30.264Z,1370.00
2023-03-11T11:14:30.264Z,1368.00
2023-03-11T11:15:30.300Z,1365.00
2023-03-11T11:16:30.964Z,1364.00
2023-03-11T11:17:30.375Z,1367.00
2023-03-11T11:18:30.485Z,1369.00
2023-03-11T11:19:30.444Z,1370.00
2023-03-11T11:20:30.475Z,1368.00
2023-03-11T11:21:31.468Z,1372.00
2023-03-11T11:22:30.545Z,1366.00
2023-03-11T11:23:30.575Z,1365.00
2023-03-11T11:24:30.626Z,1363.00
2023-03-11T11:25:30.709Z,1365.00
2023-03-11T11:26:30.699Z,1365.00
2023-03-11T11:27:30.961Z,1360.00
2023-03-11T11:28:30.791Z,1358.00
2023-03-11T11:29:30.802Z,1362.00
2023-03-11T11:30:30.878Z,1364.00
2023-03-11T11:31:30.874Z,1364.00
2023-03-11T11:32:30.948Z,1358.00
2023-03-11T11:33:30.953Z,1355.00
2023-03-11T11:34:31.950Z,1358.00
2023-03-11T11:35:31.465Z,1361.00
2023-03-11T11:36:31.077Z,1364.00
2023-03-11T11:37:31.113Z,1363.00
2023-03-11T11:38:31.148Z,1359.00
2023-03-11T11:39:31.234Z,1373.00
2023-03-11T11:40:31.222Z,1371.00
2023-03-11T11:41:31.265Z,1365.00
2023-03-11T11:42:31.299Z,1362.00
2023-03-11T11:43:31.318Z,1360.00
2023-03-11T11:44:31.434Z,1359.00
2023-03-11T11:45:31.398Z,1361.00
2023-03-11T11:46:32.013Z,1356.00
2023-03-11T11:47:31.492Z,1357.00
2023-03-11T11:48:31.518Z,1355.00
2023-03-11T11:49:31.577Z,1356.00
2023-03-11T11:50:31.590Z,1352.00
2023-03-11T11:51:31.684Z,1352.00
2023-03-11T11:52:31.733Z,1352.00
2023-03-11T11:53:31.756Z,1351.00
2023-03-11T11:54:31.803Z,1351.00
2023-03-11T11:55:31.849Z,1351.00
2023-03-11T11:56:31.966Z,1353.00
2023-03-11T11:57:31.929Z,1352.00
2023-03-11T11:58:32.951Z,1351.00
2023-03-11T11:59:31.987Z,1348.00
2023-03-11T12:00:32.030Z,1349.00
2023-03-11T12:01:32.058Z,1351.00
2023-03-11T12:02:32.075Z,1348.00
2023-03-11T12:03:32.289Z,1350.00
2023-03-11T12:04:32.326Z,1350.00
2023-03-11T12:05:32.387Z,1352.00
2023-03-11T12:06:32.396Z,1352.00
2023-03-11T12:07:32.955Z,1349.00
2023-03-11T12:08:32.491Z,1348.00
2023-03-11T12:09:32.497Z,1349.00
2023-03-11T12:10:32.541Z,1346.00
2023-03-11T12:11:32.958Z,1350.00
2023-03-11T12:12:32.689Z,1348.00
2023-03-11T12:13:32.808Z,1351.00
2023-03-11T12:14:32.857Z,1349.00
2023-03-11T12:15:32.944Z,1348.00
2023-03-11T12:16:32.921Z,1346.00
2023-03-11T12:17:32.952Z,1342.00
2023-03-11T12:18:32.986Z,1339.00
2023-03-11T12:19:33.092Z,1341.00
2023-03-11T12:20:33.221Z,1342.00
2023-03-11T12:21:33.258Z,1344.00
2023-03-11T12:22:33.280Z,1345.00
2023-03-11T12:23:33.306Z,1344.00
2023-03-11T12:24:33.342Z,1335.00
2023-03-11T12:25:33.481Z,1334.00
2023-03-11T12:26:33.557Z,1332.00
2023-03-11T12:27:33.619Z,1337.00
2023-03-11T12:28:33.702Z,1337.00
2023-03-11T12:29:33.730Z,1341.00
2023-03-11T12:30:33.762Z,1342.00
2023-03-11T12:31:33.846Z,1342.00
2023-03-11T12:32:33.878Z,1341.00
2023-03-11T12:33:33.941Z,1338.00
2023-03-11T12:34:33.953Z,1338.00
2023-03-11T12:35:34.058Z,1341.00
2023-03-11T12:36:34.174Z,1341.00
2023-03-11T12:37:34.145Z,1336.00
2023-03-11T12:38:34.080Z,1334.00
2023-03-11T12:39:34.233Z,1328.00
2023-03-11T12:40:34.412Z,1329.00
2023-03-11T12:41:34.426Z,1331.00
2023-03-11T12:42:34.455Z,1331.00
2023-03-11T12:43:34.489Z,1332.00
2023-03-11T12:44:34.509Z,1331.00
2023-03-11T12:45:34.609Z,1334.00
2023-03-11T12:46:34.641Z,1331.00
2023-03-11T12:47:35.721Z,1325.00
2023-03-11T12:48:34.679Z,1320.00
2023-03-11T12:49:34.697Z,1322.00
2023-03-11T12:50:34.721Z,1321.00
2023-03-11T12:51:34.785Z,1317.00
2023-03-11T12:52:34.799Z,1315.00
2023-03-11T12:53:34.816Z,1312.00
2023-03-11T12:54:34.861Z,1303.00
2023-03-11T12:55:35.472Z,1308.00
2023-03-11T12:56:34.910Z,1314.00
2023-03-11T12:57:34.947Z,1314.00
2023-03-11T12:58:34.983Z,1311.00
2023-03-11T12:59:35.013Z,1312.00
2023-03-11T13:00:35.045Z,1313.00
2023-03-11T13:01:35.103Z,1313.00
2023-03-11T13:02:35.155Z,1313.00
2023-03-11T13:03:35.155Z,1312.00
2023-03-11T13:04:35.200Z,1309.00
2023-03-11T13:05:35.233Z,1311.00
2023-03-11T14:20:39.029Z,1265.00
2023-03-11T14:37:38.927Z,1249.00
2023-03-11T14:38:38.976Z,1249.00
2023-03-11T14:39:39.010Z,1253.00
2023-03-11T14:40:39.105Z,1253.00
2023-03-11T14:41:39.080Z,1249.00
2023-03-11T14:42:39.115Z,1242.00
2023-03-11T14:43:39.247Z,1243.00
2023-03-11T14:44:39.340Z,1246.00
2023-03-11T14:45:39.382Z,1244.00
2023-03-11T14:46:39.346Z,1239.00
2023-03-11T14:47:39.398Z,1248.00
2023-03-11T14:48:39.430Z,1249.00
2023-03-11T14:49:39.552Z,1244.00
2023-03-11T14:50:40.009Z,1243.00
2023-03-11T14:51:39.527Z,1247.00
2023-03-11T14:52:39.568Z,1240.00
2023-03-11T14:53:39.606Z,1236.00
2023-03-11T14:54:39.641Z,1235.00
2023-03-11T14:55:39.677Z,1230.00
2023-03-11T14:56:39.728Z,1232.00
2023-03-11T14:57:39.763Z,1242.00
2023-03-11T14:58:39.805Z,1241.00
2023-03-11T14:59:39.833Z,1242.00
2023-03-11T15:00:39.897Z,1245.00
2023-03-11T15:01:39.941Z,1242.00
2023-03-11T15:02:39.951Z,1241.00
2023-03-11T15:03:40.049Z,1238.00
2023-03-11T15:04:40.031Z,1235.00
2023-03-11T15:05:40.044Z,1234.00
2023-03-11T15:06:40.088Z,1232.00
2023-03-11T15:07:40.141Z,1234.00
2023-03-11T15:08:40.164Z,1228.00
2023-03-11T15:09:40.229Z,1226.00
2023-03-11T15:10:40.252Z,1226.00
2023-03-11T15:11:40.301Z,1227.00
2023-03-11T15:12:40.349Z,1233.00
2023-03-11T15:13:40.390Z,1238.00
2023-03-11T15:14:40.433Z,1241.00
2023-03-11T15:15:40.513Z,1237.00
2023-03-11T15:16:40.530Z,1236.00
2023-03-11T15:17:44.389Z,1236.00
2023-03-11T15:18:40.577Z,1233.00
2023-03-11T15:19:40.584Z,1230.00
2023-03-11T15:20:40.620Z,1233.00
2023-03-11T15:21:40.623Z,1231.00
2023-03-11T15:22:40.662Z,1233.00
2023-03-11T15:23:40.673Z,1233.00
2023-03-11T15:24:40.687Z,1232.00
2023-03-11T15:25:40.709Z,1228.00
2023-03-11T15:26:41.513Z,1227.00
2023-03-11T15:27:40.738Z,1225.00
2023-03-11T15:28:40.766Z,1222.00
2023-03-11T15:29:40.775Z,1218.00
2023-03-11T15:30:40.829Z,1219.00
2023-03-11T15:31:40.804Z,1217.00
2023-03-11T15:32:40.887Z,1217.00
2023-03-11T15:33:40.844Z,1214.00
2023-03-11T15:34:40.859Z,1214.00
2023-03-11T15:35:41.029Z,1213.00
2023-03-11T15:36:40.915Z,1212.00
2023-03-11T15:37:41.524Z,1218.00
2023-03-11T15:38:40.950Z,1218.00
2023-03-11T15:39:40.970Z,1218.00
2023-03-11T15:40:45.688Z,1218.00
2023-03-11T15:41:42.016Z,1219.00
2023-03-11T15:42:41.017Z,1218.00
2023-03-11T15:43:41.028Z,1219.00
2023-03-11T15:44:41.075Z,1224.00
2023-03-11T15:45:41.070Z,1222.00
2023-03-11T15:46:41.076Z,1218.00
2023-03-11T15:47:41.089Z,1218.00
2023-03-11T15:48:41.095Z,1216.00
2023-03-11T15:49:41.117Z,1216.00
2023-03-11T15:50:52.621Z,1214.00
2023-03-11T15:51:42.136Z,1214.00
2023-03-11T15:52:41.226Z,1218.00
2023-03-11T15:53:41.185Z,1217.00
2023-03-11T15:54:41.210Z,1218.00
2023-03-11T15:55:41.196Z,1221.00
2023-03-11T15:56:41.254Z,1219.00
2023-03-11T15:57:41.246Z,1219.00
2023-03-11T15:58:41.257Z,1217.00
2023-03-11T15:59:41.304Z,1219.00
2023-03-11T16:00:41.307Z,1216.00
2023-03-11T16:01:41.341Z,1216.00
2023-03-11T16:02:41.358Z,1214.00
2023-03-11T16:03:41.464Z,1212.00
2023-03-11T16:04:41.512Z,1213.00
2023-03-11T16:05:41.399Z,1209.00
2023-03-11T16:06:41.428Z,1211.00
2023-03-11T16:07:41.465Z,1206.00
2023-03-11T16:08:41.552Z,1205.00
2023-03-11T16:09:41.478Z,1212.00
2023-03-11T16:10:41.491Z,1214.00
2023-03-11T16:11:41.513Z,1214.00
2023-03-11T16:12:41.550Z,1217.00
2023-03-11T16:13:41.607Z,1217.00
2023-03-11T16:14:42.520Z,1218.00
2023-03-11T16:15:41.754Z,1214.00
2023-03-11T16:16:41.758Z,1211.00
2023-03-11T16:17:49.803Z,1212.00
2023-03-11T16:18:42.896Z,1212.00
2023-03-11T16:23:51.688Z,1206.00
2023-03-11T16:25:41.959Z,1198.00
2023-03-11T16:26:41.981Z,1197.00
2023-03-11T16:27:41.992Z,1202.00
2023-03-11T16:28:42.010Z,1205.00
2023-03-11T16:29:42.032Z,1215.00
2023-03-11T16:30:42.053Z,1209.00
2023-03-11T16:31:42.077Z,1203.00
2023-03-11T16:32:42.134Z,1200.00
2023-03-11T16:33:42.177Z,1201.00
2023-03-11T16:34:42.124Z,1202.00
2023-03-11T16:35:42.157Z,1199.00
2023-03-11T16:36:42.153Z,1200.00
2023-03-11T16:37:42.190Z,1203.00
2023-03-11T16:38:42.210Z,1204.00
2023-03-11T16:39:42.267Z,1206.00
2023-03-11T16:40:42.322Z,1207.00
2023-03-11T16:41:42.408Z,1208.00
2023-03-11T16:42:42.438Z,1206.00
2023-03-11T16:43:42.504Z,1205.00
2023-03-11T16:44:42.545Z,1204.00
2023-03-11T16:45:42.666Z,1205.00
2023-03-11T16:46:42.667Z,1204.00
2023-03-11T16:47:42.712Z,1207.00
2023-03-11T16:48:42.772Z,1206.00
2023-03-11T16:49:42.826Z,1205.00
2023-03-11T16:50:42.897Z,1204.00
2023-03-11T16:51:42.950Z,1204.00
2023-03-11T16:52:43.044Z,1208.00
2023-03-11T16:53:43.126Z,1204.00
2023-03-11T16:54:43.121Z,1203.00
2023-03-11T16:55:43.193Z,1204.00
2023-03-11T16:56:43.247Z,1206.00
2023-03-11T16:57:43.334Z,1205.00
2023-03-11T16:58:43.367Z,1219.00
2023-03-11T16:59:43.458Z,1214.00
2023-03-11T17:00:43.490Z,1213.00
2023-03-11T17:01:43.689Z,1211.00
2023-03-11T17:02:43.634Z,1210.00
2023-03-11T17:03:43.692Z,1209.00
2023-03-11T17:04:44.576Z,1205.00
2023-03-11T17:05:43.814Z,1203.00
2023-03-11T17:06:44.048Z,1204.00
2023-03-11T17:07:43.948Z,1206.00
2023-03-11T17:08:44.011Z,1211.00
2023-03-11T17:09:44.075Z,1210.00
2023-03-11T17:10:44.204Z,1205.00
2023-03-11T17:11:45.097Z,1201.00
2023-03-11T17:12:44.286Z,1201.00
2023-03-11T17:13:44.368Z,1202.00
2023-03-11T17:14:44.407Z,1204.00
2023-03-11T17:15:44.493Z,1201.00
2023-03-11T17:16:44.574Z,1200.00
2023-03-11T17:17:44.612Z,1197.00
2023-03-11T17:18:44.680Z,1199.00
2023-03-11T17:19:44.735Z,1210.00
2023-03-11T17:20:44.793Z,1195.00
2023-03-11T17:21:44.864Z,1193.00
2023-03-11T17:22:44.928Z,1199.00
2023-03-11T17:23:45.005Z,1197.00
2023-03-11T17:24:45.120Z,1199.00
2023-03-11T17:25:45.149Z,1197.00
2023-03-11T17:26:45.211Z,1196.00
2023-03-11T17:27:45.276Z,1195.00
2023-03-11T17:28:45.345Z,1196.00
2023-03-11T17:29:45.460Z,1196.00
2023-03-11T17:30:45.541Z,1198.00
2023-03-11T17:31:45.590Z,1197.00
2023-03-11T17:32:45.716Z,1202.00
2023-03-11T17:33:45.689Z,1196.00
2023-03-11T17:34:45.734Z,1194.00
2023-03-11T17:35:45.824Z,1193.00
2023-03-11T17:36:45.863Z,1194.00
2023-03-11T17:37:46.022Z,1197.00
2023-03-11T17:38:46.016Z,1194.00
2023-03-11T17:39:46.559Z,1196.00
2023-03-11T17:40:46.147Z,1197.00
2023-03-11T17:41:46.209Z,1197.00
2023-03-11T17:42:46.301Z,1196.00
2023-03-11T17:43:47.386Z,1196.00
2023-03-11T17:44:51.852Z,1195.00
2023-03-11T17:45:47.454Z,1200.00
2023-03-11T17:46:46.527Z,1197.00
2023-03-11T17:47:46.490Z,1196.00
2023-03-11T17:48:46.536Z,1195.00
2023-03-11T17:49:46.530Z,1190.00
2023-03-11T17:50:46.547Z,1188.00
2023-03-11T17:51:46.561Z,1194.00
2023-03-11T17:52:46.610Z,1194.00
2023-03-11T17:53:46.609Z,1195.00
2023-03-11T17:54:46.612Z,1195.00
2023-03-11T17:55:46.624Z,1191.00
2023-03-11T17:56:46.654Z,1198.00
2023-03-11T17:57:46.730Z,1199.00
2023-03-11T17:58:46.805Z,1198.00
2023-03-11T17:59:46.877Z,1198.00
2023-03-11T18:00:46.944Z,1191.00
2023-03-11T18:01:47.052Z,1194.00
2023-03-11T18:02:47.100Z,1196.00
2023-03-11T18:03:47.212Z,1193.00
2023-03-11T18:04:47.269Z,1195.00
2023-03-11T18:05:47.321Z,1194.00
2023-03-11T18:06:47.401Z,1192.00
2023-03-11T18:07:47.476Z,1191.00
2023-03-11T18:08:47.552Z,1191.00
2023-03-11T18:09:47.626Z,1190.00
2023-03-11T18:10:47.702Z,1189.00
2023-03-11T18:11:47.776Z,1188.00
2023-03-11T18:12:47.844Z,1191.00
2023-03-11T18:13:48.021Z,1184.00
2023-03-11T18:14:48.008Z,1184.00
2023-03-11T18:15:48.077Z,1186.00
2023-03-11T18:16:48.188Z,1185.00
2023-03-11T18:17:48.227Z,1181.00
2023-03-11T18:18:48.318Z,1186.00
2023-03-11T18:19:48.382Z,1182.00
2023-03-11T18:20:48.523Z,1181.00
2023-03-11T18:21:48.566Z,1179.00
2023-03-11T18:22:48.587Z,1178.00
2023-03-11T18:23:48.665Z,1176.00
2023-03-11T18:24:48.754Z,1177.00
2023-03-11T18:25:48.823Z,1175.00
2023-03-11T18:26:48.911Z,1173.00
2023-03-11T18:27:48.992Z,1171.00
2023-03-11T18:28:49.039Z,1168.00
2023-03-11T18:29:49.192Z,1168.00
2023-03-11T18:30:49.198Z,1169.00
2023-03-11T18:31:49.298Z,1168.00
2023-03-11T18:32:49.353Z,1171.00
2023-03-11T18:33:49.418Z,1168.00
2023-03-11T18:34:49.505Z,1167.00
2023-03-11T18:35:49.637Z,1164.00
2023-03-11T18:36:49.655Z,1162.00
2023-03-11T18:37:49.732Z,1164.00
2023-03-11T18:38:49.805Z,1161.00
2023-03-11T18:39:49.876Z,1164.00
2023-03-11T18:40:49.948Z,1166.00
2023-03-11T18:41:50.027Z,1163.00
2023-03-11T18:42:50.134Z,1162.00
2023-03-11T18:43:50.174Z,1161.00
2023-03-11T18:44:50.318Z,1161.00
2023-03-11T18:45:50.348Z,1157.00
2023-03-11T18:46:50.411Z,1161.00
2023-03-11T18:47:50.487Z,1163.00
2023-03-11T18:48:50.575Z,1166.00
2023-03-11T18:49:50.649Z,1157.00
2023-03-11T18:50:50.734Z,1153.00
2023-03-11T18:51:50.811Z,1154.00
2023-03-11T18:52:50.881Z,1151.00
2023-03-11T18:53:50.960Z,1151.00
2023-03-11T18:54:51.098Z,1150.00
2023-03-11T18:55:51.128Z,1145.00
2023-03-11T18:56:51.257Z,1144.00
2023-03-11T18:57:51.279Z,1143.00
2023-03-11T18:58:51.340Z,1142.00
2023-03-11T18:59:51.418Z,1138.00
2023-03-11T19:00:51.588Z,1142.00
2023-03-11T19:01:51.573Z,1136.00
2023-03-11T19:02:51.658Z,1138.00
2023-03-11T19:03:51.720Z,1139.00
2023-03-11T19:04:52.627Z,1138.00
2023-03-11T19:05:51.879Z,1137.00
2023-03-11T19:06:51.963Z,1134.00
2023-03-11T19:07:52.094Z,1134.00
2023-03-11T19:08:52.116Z,1136.00
2023-03-11T19:09:52.185Z,1134.00
2023-03-11T19:10:52.274Z,1133.00
2023-03-11T19:11:52.345Z,1131.00
2023-03-11T19:12:52.429Z,1132.00
2023-03-11T19:13:52.517Z,1134.00
2023-03-11T19:14:52.591Z,1132.00
2023-03-11T19:15:52.721Z,1133.00
2023-03-11T19:16:52.799Z,1135.00
2023-03-11T19:18:05.962Z,1133.00
2023-03-11T19:18:53.933Z,1130.00
2023-03-11T19:19:52.866Z,1131.00
2023-03-11T19:20:52.909Z,1130.00
2023-03-11T19:21:52.922Z,1130.00
2023-03-11T19:22:52.944Z,1130.00
2023-03-11T19:23:52.964Z,1132.00
2023-03-11T19:24:52.991Z,1131.00
2023-03-11T19:26:02.504Z,1128.00
2023-03-11T19:26:54.039Z,1127.00
2023-03-11T19:27:53.051Z,1127.00
2023-03-11T19:28:53.057Z,1125.00
2023-03-11T19:29:53.064Z,1124.00
2023-03-11T19:30:53.109Z,1123.00
2023-03-11T19:31:53.109Z,1122.00
2023-03-11T19:32:53.245Z,1119.00
2023-03-11T19:33:53.218Z,1114.00
2023-03-11T19:34:53.159Z,1112.00
2023-03-11T19:35:53.224Z,1111.00
2023-03-11T19:36:53.262Z,1111.00
2023-03-11T19:37:55.474Z,1106.00
2023-03-11T19:38:53.352Z,1108.00
2023-03-11T19:39:53.379Z,1109.00
2023-03-11T19:40:53.393Z,1109.00
2023-03-11T19:41:53.424Z,1107.00
2023-03-11T19:42:53.452Z,1107.00
2023-03-11T19:43:53.496Z,1103.00
2023-03-11T19:44:53.488Z,1100.00
2023-03-11T19:45:53.555Z,1097.00
2023-03-11T19:46:53.627Z,1097.00
2023-03-11T19:47:53.630Z,1097.00
2023-03-11T19:48:53.595Z,1099.00
2023-03-11T19:49:53.644Z,1101.00
2023-03-11T19:50:53.654Z,1101.00
2023-03-11T19:51:53.708Z,1099.00
2023-03-11T19:52:53.710Z,1098.00
2023-03-11T19:53:53.781Z,1094.00
2023-03-11T19:54:53.759Z,1091.00
2023-03-11T19:55:53.787Z,1092.00
2023-03-11T19:56:53.878Z,1093.00
2023-03-11T19:57:53.887Z,1091.00
2023-03-11T19:58:53.851Z,1097.00
2023-03-11T19:59:53.865Z,1094.00
2023-03-11T20:00:53.892Z,1095.00
2023-03-11T20:01:53.944Z,1094.00
2023-03-11T20:02:53.984Z,1092.00
2023-03-11T20:03:53.970Z,1090.00
2023-03-11T20:04:54.055Z,1090.00
2023-03-11T20:05:54.045Z,1091.00
2023-03-11T20:06:54.108Z,1089.00
2023-03-11T20:07:54.111Z,1087.00
2023-03-11T20:08:54.223Z,1089.00
2023-03-11T20:09:54.181Z,1091.00
2023-03-11T20:10:54.307Z,1084.00
2023-03-11T20:11:54.341Z,1086.00
2023-03-11T20:13:01.993Z,1088.00
2023-03-11T20:13:55.462Z,1089.00
2023-03-11T20:14:54.507Z,1088.00
2023-03-11T20:15:54.594Z,1089.00
2023-03-11T20:16:54.510Z,1088.00
2023-03-11T20:17:54.563Z,1093.00
2023-03-11T20:18:54.539Z,1095.00
2023-03-11T20:19:55.091Z,1093.00
2023-03-11T20:20:54.572Z,1091.00
2023-03-11T20:21:54.647Z,1090.00
2023-03-11T20:22:54.605Z,1090.00
2023-03-11T20:23:54.769Z,1089.00
2023-03-11T20:24:54.678Z,1084.00
2023-03-11T20:25:54.688Z,1086.00
2023-03-11T20:26:54.807Z,1079.00
2023-03-11T20:27:54.912Z,1079.00
2023-03-11T20:28:54.905Z,1076.00
2023-03-11T20:29:54.970Z,1074.00
2023-03-11T20:30:55.097Z,1077.00
2023-03-11T20:31:55.144Z,1074.00
2023-03-11T20:32:55.264Z,1078.00
2023-03-11T20:33:55.214Z,1077.00
2023-03-11T20:34:55.276Z,1073.00
2023-03-11T20:35:55.388Z,1077.00
2023-03-11T20:36:55.403Z,1073.00
2023-03-11T20:37:55.537Z,1069.00
2023-03-11T20:38:55.626Z,1068.00
2023-03-11T20:39:55.664Z,1068.00
2023-03-11T20:40:55.669Z,1072.00
2023-03-11T20:41:56.677Z,1074.00
2023-03-11T20:42:55.834Z,1077.00
2023-03-11T20:43:55.861Z,1076.00
2023-03-11T20:44:55.946Z,1079.00
2023-03-11T20:45:56.036Z,1073.00
2023-03-11T20:46:56.187Z,1075.00
2023-03-11T20:47:56.151Z,1075.00
2023-03-11T20:48:56.216Z,1076.00
2023-03-11T20:49:56.349Z,1077.00
2023-03-11T20:50:56.379Z,1082.00
2023-03-11T20:51:56.400Z,1078.00
2023-03-11T20:52:56.517Z,1077.00
2023-03-11T20:53:56.579Z,1076.00
2023-03-11T20:54:56.758Z,1076.00
2023-03-11T20:55:56.791Z,1077.00
2023-03-11T20:56:56.816Z,1077.00
2023-03-11T20:57:56.938Z,1075.00
2023-03-11T20:58:56.953Z,1075.00